Time;durP1;ratioP1;P1;durP2;ratioP2;P2;SDS_P1;SDS_P2;PMS_P1;PMS_P2;Temp;Humidity;BMP_temperature;BMP_pressure;BME280_temperature;BME280_humidity;BME280_pressure;Samples;Min_cycle;Max_cycle;Signal;HPM_P1;HPM_P2
2023/12/02 00:00:19;;;;;;;;;;;18.00;50.50;;;;;;7395903;19;4030;-61
2023/12/02 00:02:44;;;;;;;;;;;18.00;50.50;;;;;;7398858;19;1849;-61
2023/12/02 00:05:10;;;;;;;;;;;18.00;50.50;;;;;;7399031;19;2493;-60
2023/12/02 00:07:35;;;;;;;;;;;18.00;50.50;;;;;;7396206;19;3367;-60
2023/12/02 00:10:01;;;;;;;;;;;18.00;50.60;;;;;;7400347;19;1687;-61
2023/12/02 00:12:26;;;;;;;;;;;18.00;50.50;;;;;;7399605;19;1547;-60
2023/12/02 00:14:52;;;;;;;;;;;17.90;50.30;;;;;;7397668;19;3600;-61
2023/12/02 00:17:17;;;;;;;;;;;18.00;50.30;;;;;;7401563;19;1665;-61
2023/12/02 00:19:43;;;;;;;;;;;17.90;50.40;;;;;;7399122;19;1719;-62
2023/12/02 00:22:08;;;;;;;;;;;18.00;50.60;;;;;;7396065;19;3720;-60
2023/12/02 00:24:33;;;;;;;;;;;18.00;50.40;;;;;;7397350;19;962;-62
2023/12/02 00:26:59;;;;;;;;;;;18.00;50.30;;;;;;7397312;19;3747;-61
2023/12/02 00:29:24;;;;;;;;;;;18.00;50.40;;;;;;7399342;19;4190;-61
2023/12/02 00:31:50;;;;;;;;;;;18.00;50.50;;;;;;7398357;19;1605;-62
2023/12/02 00:34:15;;;;;;;;;;;17.90;50.50;;;;;;7396059;19;4466;-61
2023/12/02 00:36:43;;;;;;;;;;;17.90;50.40;;;;;;7399401;19;3560;-61
2023/12/02 00:39:08;;;;;;;;;;;17.90;50.20;;;;;;7399530;19;1514;-61
2023/12/02 00:41:34;;;;;;;;;;;17.90;50.10;;;;;;7400194;19;1845;-60
2023/12/02 00:43:59;;;;;;;;;;;17.90;50.10;;;;;;7398880;19;1518;-61
2023/12/02 00:46:24;;;;;;;;;;;17.90;50.20;;;;;;7397004;19;3957;-60
2023/12/02 00:48:50;;;;;;;;;;;18.00;50.40;;;;;;7395077;19;3557;-61
2023/12/02 00:51:15;;;;;;;;;;;17.90;50.20;;;;;;7399209;19;1731;-62
2023/12/02 00:53:41;;;;;;;;;;;18.00;50.50;;;;;;7396825;19;2117;-61
2023/12/02 00:56:06;;;;;;;;;;;17.90;50.20;;;;;;7396483;19;3625;-61
2023/12/02 00:58:32;;;;;;;;;;;17.90;50.00;;;;;;7394700;19;2299;-60
2023/12/02 01:00:57;;;;;;;;;;;17.80;50.10;;;;;;7396105;19;1855;-61
2023/12/02 01:03:23;;;;;;;;;;;17.80;50.40;;;;;;7393959;19;4359;-60
2023/12/02 01:05:48;;;;;;;;;;;17.80;50.20;;;;;;7394003;19;1061;-60
2023/12/02 01:08:14;;;;;;;;;;;17.80;49.80;;;;;;7399001;19;1692;-60
2023/12/02 01:10:39;;;;;;;;;;;17.80;50.00;;;;;;7394036;19;2282;-60
2023/12/02 01:13:05;;;;;;;;;;;17.80;50.10;;;;;;7396338;19;1764;-60
2023/12/02 01:15:30;;;;;;;;;;;17.80;49.80;;;;;;7394228;19;4087;-61
2023/12/02 01:17:55;;;;;;;;;;;17.80;50.10;;;;;;7393695;19;4084;-61
2023/12/02 01:20:21;;;;;;;;;;;17.80;49.90;;;;;;7398912;19;1671;-61
2023/12/02 01:22:46;;;;;;;;;;;17.80;50.20;;;;;;7391916;19;2192;-61
2023/12/02 01:25:12;;;;;;;;;;;17.70;50.20;;;;;;7394796;19;3679;-61
2023/12/02 01:27:37;;;;;;;;;;;17.80;50.00;;;;;;7397528;19;1584;-60
2023/12/02 01:30:03;;;;;;;;;;;17.80;49.90;;;;;;7394854;19;3959;-60
2023/12/02 01:32:29;;;;;;;;;;;17.80;50.10;;;;;;7395599;19;3521;-60
2023/12/02 01:34:54;;;;;;;;;;;17.90;50.10;;;;;;7397918;19;1345;-60
2023/12/02 01:37:20;;;;;;;;;;;17.80;50.10;;;;;;7394862;19;1495;-60
2023/12/02 01:39:45;;;;;;;;;;;17.80;49.60;;;;;;7394330;19;1101;-60
2023/12/02 01:42:10;;;;;;;;;;;17.80;49.80;;;;;;7394707;19;3588;-60
2023/12/02 01:44:36;;;;;;;;;;;17.80;50.00;;;;;;7396568;19;1490;-60
2023/12/02 01:47:02;;;;;;;;;;;17.70;49.80;;;;;;7398183;19;1643;-60
2023/12/02 01:49:27;;;;;;;;;;;17.70;49.90;;;;;;7394881;19;3382;-60
2023/12/02 01:51:53;;;;;;;;;;;17.80;50.10;;;;;;7396241;19;1505;-60
2023/12/02 01:54:19;;;;;;;;;;;17.80;50.10;;;;;;7392672;19;4137;-61
2023/12/02 01:56:46;;;;;;;;;;;17.80;49.90;;;;;;7397268;19;4130;-60
2023/12/02 01:59:11;;;;;;;;;;;17.70;49.90;;;;;;7393689;19;1467;-61
2023/12/02 02:01:37;;;;;;;;;;;17.70;49.80;;;;;;7395625;19;1846;-60
2023/12/02 02:04:02;;;;;;;;;;;17.60;50.10;;;;;;7394486;19;3406;-60
2023/12/02 02:06:28;;;;;;;;;;;17.60;50.10;;;;;;7391546;19;872;-61
2023/12/02 02:08:53;;;;;;;;;;;17.60;49.90;;;;;;7397338;19;1697;-60
2023/12/02 02:11:18;;;;;;;;;;;17.70;50.00;;;;;;7394928;19;1765;-60
2023/12/02 02:13:44;;;;;;;;;;;17.70;49.60;;;;;;7393623;19;1507;-61
2023/12/02 02:16:09;;;;;;;;;;;17.70;49.80;;;;;;7394536;19;3331;-61
2023/12/02 02:18:35;;;;;;;;;;;17.70;50.00;;;;;;7402170;19;2626;-60
2023/12/02 02:21:01;;;;;;;;;;;17.60;50.00;;;;;;7399874;19;1864;-60
2023/12/02 02:23:26;;;;;;;;;;;17.60;49.60;;;;;;7400053;19;3267;-60
2023/12/02 02:25:52;;;;;;;;;;;17.60;49.70;;;;;;7403190;19;1700;-60
2023/12/02 02:28:21;;;;;;;;;;;17.60;49.80;;;;;;7400925;19;979;-60
2023/12/02 02:30:46;;;;;;;;;;;17.60;49.80;;;;;;7400543;19;3419;-60
2023/12/02 02:33:12;;;;;;;;;;;17.60;49.70;;;;;;7400024;19;3541;-61
2023/12/02 02:35:38;;;;;;;;;;;17.60;49.50;;;;;;7400345;19;1690;-61
2023/12/02 02:38:03;;;;;;;;;;;17.60;49.90;;;;;;7401185;19;3712;-61
2023/12/02 02:40:29;;;;;;;;;;;17.50;49.80;;;;;;7400947;19;1842;-61
2023/12/02 02:42:54;;;;;;;;;;;17.50;49.60;;;;;;7403603;19;1933;-62
2023/12/02 02:45:20;;;;;;;;;;;17.50;50.30;;;;;;7399653;19;1592;-61
2023/12/02 02:47:45;;;;;;;;;;;17.60;49.80;;;;;;7399819;19;3624;-61
2023/12/02 02:50:11;;;;;;;;;;;17.60;49.80;;;;;;7401661;19;1704;-61
2023/12/02 02:52:36;;;;;;;;;;;17.60;49.60;;;;;;7398174;19;4050;-60
2023/12/02 02:55:01;;;;;;;;;;;17.60;49.70;;;;;;7400314;19;1782;-61
2023/12/02 02:57:27;;;;;;;;;;;17.60;49.90;;;;;;7399519;19;884;-60
2023/12/02 02:59:52;;;;;;;;;;;17.60;49.80;;;;;;7395184;19;3692;-60
2023/12/02 03:02:18;;;;;;;;;;;17.60;49.50;;;;;;7400979;19;1846;-60
2023/12/02 03:04:43;;;;;;;;;;;17.60;49.60;;;;;;7401313;19;1705;-61
2023/12/02 03:07:09;;;;;;;;;;;17.60;49.60;;;;;;7398889;19;3955;-60
2023/12/02 03:09:34;;;;;;;;;;;17.60;49.70;;;;;;7399322;19;852;-60
2023/12/02 03:12:00;;;;;;;;;;;17.60;49.60;;;;;;7402722;19;1771;-60
2023/12/02 03:14:25;;;;;;;;;;;17.60;49.60;;;;;;7398881;19;3586;-62
2023/12/02 03:16:50;;;;;;;;;;;17.60;49.80;;;;;;7402473;19;1716;-60
2023/12/02 03:19:16;;;;;;;;;;;17.60;49.50;;;;;;7400971;19;1543;-60
2023/12/02 03:21:42;;;;;;;;;;;17.60;49.50;;;;;;7397544;19;1862;-60
2023/12/02 03:24:07;;;;;;;;;;;17.60;49.50;;;;;;7398436;19;3567;-60
2023/12/02 03:26:36;;;;;;;;;;;17.60;49.40;;;;;;7402715;19;1683;-60
2023/12/02 03:29:02;;;;;;;;;;;17.60;49.40;;;;;;7397338;19;3077;-60
2023/12/02 03:31:27;;;;;;;;;;;17.50;49.70;;;;;;7398587;19;4492;-61
2023/12/02 03:33:53;;;;;;;;;;;17.50;49.60;;;;;;7400166;19;1771;-61
2023/12/02 03:36:19;;;;;;;;;;;17.40;49.60;;;;;;7398953;19;3951;-60
2023/12/02 03:38:44;;;;;;;;;;;17.40;49.70;;;;;;7400746;19;1653;-61
2023/12/02 03:41:09;;;;;;;;;;;17.40;49.50;;;;;;7399488;19;1849;-60
2023/12/02 03:43:35;;;;;;;;;;;17.40;49.70;;;;;;7397535;19;3996;-61
2023/12/02 03:46:01;;;;;;;;;;;17.40;49.60;;;;;;7399349;19;3618;-61
2023/12/02 03:48:27;;;;;;;;;;;17.40;49.60;;;;;;7401062;19;1696;-60
2023/12/02 03:50:53;;;;;;;;;;;17.40;49.70;;;;;;7398269;19;3658;-61
2023/12/02 03:53:18;;;;;;;;;;;17.40;49.70;;;;;;7398356;19;1763;-61
2023/12/02 03:55:44;;;;;;;;;;;17.40;50.00;;;;;;7399957;19;1680;-61
2023/12/02 03:58:10;;;;;;;;;;;17.40;49.70;;;;;;7400794;19;1682;-61
2023/12/02 04:00:35;;;;;;;;;;;17.40;49.80;;;;;;7393296;19;3779;-60
2023/12/02 04:03:01;;;;;;;;;;;17.40;49.60;;;;;;7398309;19;3848;-60
2023/12/02 04:05:26;;;;;;;;;;;17.40;49.70;;;;;;7398216;19;3564;-61
2023/12/02 04:07:53;;;;;;;;;;;17.40;49.90;;;;;;7401192;19;1678;-61
2023/12/02 04:10:18;;;;;;;;;;;17.40;49.90;;;;;;7395732;19;3478;-61
2023/12/02 04:12:44;;;;;;;;;;;17.30;49.90;;;;;;7398660;19;1707;-60
2023/12/02 04:15:10;;;;;;;;;;;17.40;49.80;;;;;;7394493;19;4246;-62
2023/12/02 04:17:35;;;;;;;;;;;17.40;49.80;;;;;;7401646;19;1629;-61
2023/12/02 04:20:03;;;;;;;;;;;17.30;49.80;;;;;;7396957;19;5839;-61
2023/12/02 04:22:30;;;;;;;;;;;17.30;49.60;;;;;;7398375;19;1854;-61
2023/12/02 04:24:55;;;;;;;;;;;17.30;49.90;;;;;;7395507;19;3701;-60
2023/12/02 04:27:21;;;;;;;;;;;17.30;49.80;;;;;;7398449;19;4145;-60
2023/12/02 04:29:47;;;;;;;;;;;17.30;49.90;;;;;;7396336;19;1504;-61
2023/12/02 04:32:12;;;;;;;;;;;17.30;49.60;;;;;;7400932;19;1583;-61
2023/12/02 04:34:38;;;;;;;;;;;17.40;49.70;;;;;;7394880;19;3567;-61
2023/12/02 04:37:03;;;;;;;;;;;17.40;49.50;;;;;;7398047;19;1532;-61
2023/12/02 04:39:29;;;;;;;;;;;17.40;49.50;;;;;;7396791;19;1713;-60
2023/12/02 04:41:54;;;;;;;;;;;17.40;49.50;;;;;;7390650;19;4161;-61
2023/12/02 04:44:20;;;;;;;;;;;17.40;49.40;;;;;;7397308;19;4191;-61
2023/12/02 04:46:45;;;;;;;;;;;17.40;49.50;;;;;;7397216;19;4137;-61
2023/12/02 04:49:11;;;;;;;;;;;17.40;49.60;;;;;;7397740;19;3466;-60
2023/12/02 04:51:36;;;;;;;;;;;17.40;49.60;;;;;;7395275;19;1074;-61
2023/12/02 04:54:02;;;;;;;;;;;17.40;49.40;;;;;;7392518;19;3701;-61
2023/12/02 04:56:27;;;;;;;;;;;17.40;49.50;;;;;;7396580;19;1932;-61
2023/12/02 04:58:53;;;;;;;;;;;17.40;49.50;;;;;;7396399;19;1774;-61
2023/12/02 05:01:18;;;;;;;;;;;17.40;49.60;;;;;;7393281;19;2543;-60
2023/12/02 05:03:44;;;;;;;;;;;17.30;49.30;;;;;;7395736;19;3770;-61
2023/12/02 05:06:13;;;;;;;;;;;17.40;49.60;;;;;;7398425;19;1412;-60
2023/12/02 05:08:38;;;;;;;;;;;17.30;49.50;;;;;;7392156;19;3258;-60
2023/12/02 05:11:04;;;;;;;;;;;17.40;49.50;;;;;;7397869;19;1673;-61
2023/12/02 05:13:29;;;;;;;;;;;17.30;49.40;;;;;;7395539;19;863;-60
2023/12/02 05:15:55;;;;;;;;;;;17.30;49.60;;;;;;7396332;19;3624;-61
2023/12/02 05:18:20;;;;;;;;;;;17.30;49.70;;;;;;7399315;19;3967;-61
2023/12/02 05:20:45;;;;;;;;;;;17.20;49.60;;;;;;7398337;19;1841;-62
2023/12/02 05:23:11;;;;;;;;;;;17.20;49.50;;;;;;7393761;19;3424;-60
2023/12/02 05:25:36;;;;;;;;;;;17.30;49.50;;;;;;7399247;19;1797;-62
2023/12/02 05:28:02;;;;;;;;;;;17.30;49.60;;;;;;7398847;19;1639;-61
2023/12/02 05:30:27;;;;;;;;;;;17.30;49.40;;;;;;7398006;19;1691;-61
2023/12/02 05:32:53;;;;;;;;;;;17.30;49.40;;;;;;7391188;19;3681;-61
2023/12/02 05:35:19;;;;;;;;;;;17.30;49.50;;;;;;7397162;19;4288;-61
2023/12/02 05:37:44;;;;;;;;;;;17.30;49.50;;;;;;7397793;19;1712;-61
2023/12/02 05:40:10;;;;;;;;;;;17.30;49.40;;;;;;7394116;19;3432;-60
2023/12/02 05:42:35;;;;;;;;;;;17.30;49.50;;;;;;7396520;19;1854;-62
2023/12/02 05:45:00;;;;;;;;;;;17.30;49.60;;;;;;7394941;19;1408;-61
2023/12/02 05:47:26;;;;;;;;;;;17.20;49.60;;;;;;7394819;19;3943;-60
2023/12/02 05:49:51;;;;;;;;;;;17.20;49.60;;;;;;7395275;19;1504;-60
2023/12/02 05:52:17;;;;;;;;;;;17.20;49.40;;;;;;7401513;19;3297;-61
2023/12/02 05:54:42;;;;;;;;;;;17.20;49.30;;;;;;7403233;19;3183;-60
2023/12/02 05:57:08;;;;;;;;;;;17.30;49.50;;;;;;7404179;19;1859;-61
2023/12/02 05:59:34;;;;;;;;;;;17.30;49.30;;;;;;7400687;19;4552;-62
2023/12/02 06:01:59;;;;;;;;;;;17.30;49.30;;;;;;7402449;19;1853;-61
2023/12/02 06:04:24;;;;;;;;;;;17.30;49.20;;;;;;7403979;19;1771;-60
2023/12/02 06:06:50;;;;;;;;;;;17.20;49.30;;;;;;7401350;19;3334;-61
2023/12/02 06:09:15;;;;;;;;;;;17.20;49.40;;;;;;7404828;19;3215;-60
2023/12/02 06:11:41;;;;;;;;;;;17.20;49.30;;;;;;7406212;19;1721;-61
2023/12/02 06:14:06;;;;;;;;;;;17.30;49.30;;;;;;7397662;19;4799;-61
2023/12/02 06:16:32;;;;;;;;;;;17.30;49.30;;;;;;7402072;19;4155;-62
2023/12/02 06:18:57;;;;;;;;;;;17.20;49.40;;;;;;7403768;19;1720;-61
2023/12/02 06:21:22;;;;;;;;;;;17.20;49.20;;;;;;7400908;19;3173;-61
2023/12/02 06:23:48;;;;;;;;;;;17.20;49.20;;;;;;7404057;19;3706;-60
2023/12/02 06:26:13;;;;;;;;;;;17.20;49.30;;;;;;7404165;19;1712;-61
2023/12/02 06:28:39;;;;;;;;;;;17.20;49.20;;;;;;7399504;19;3728;-60
2023/12/02 06:31:11;;;;;;;;;;;17.20;49.20;;;;;;7404495;19;1435;-60
2023/12/02 06:33:36;;;;;;;;;;;17.20;49.00;;;;;;7402773;19;1760;-61
2023/12/02 06:36:03;;;;;;;;;;;17.30;49.20;;;;;;7399470;19;3789;-61
2023/12/02 06:38:28;;;;;;;;;;;17.30;49.20;;;;;;7402049;19;4168;-61
2023/12/02 06:40:53;;;;;;;;;;;17.30;49.20;;;;;;7400508;19;1838;-61
2023/12/02 06:43:19;;;;;;;;;;;17.20;49.40;;;;;;7401978;19;1777;-61
2023/12/02 06:45:44;;;;;;;;;;;17.30;49.20;;;;;;7401272;19;3222;-61
2023/12/02 06:48:10;;;;;;;;;;;17.30;49.00;;;;;;7401842;19;3316;-60
2023/12/02 06:50:35;;;;;;;;;;;17.30;49.10;;;;;;7400532;19;3960;-60
2023/12/02 06:53:01;;;;;;;;;;;17.30;49.20;;;;;;7398593;19;5305;-60
2023/12/02 06:55:27;;;;;;;;;;;17.30;49.10;;;;;;7398499;19;1921;-61
2023/12/02 06:57:52;;;;;;;;;;;17.30;49.10;;;;;;7400170;19;1818;-61
2023/12/02 07:00:18;;;;;;;;;;;17.30;49.30;;;;;;7401061;19;2090;-60
2023/12/02 07:02:44;;;;;;;;;;;17.20;49.00;;;;;;7395489;19;3367;-62
2023/12/02 07:05:09;;;;;;;;;;;17.30;49.00;;;;;;7398374;19;3139;-61
2023/12/02 07:07:35;;;;;;;;;;;17.30;49.00;;;;;;7401183;19;3611;-61
2023/12/02 07:10:01;;;;;;;;;;;17.30;49.10;;;;;;7399826;19;3969;-60
2023/12/02 07:12:26;;;;;;;;;;;17.30;49.10;;;;;;7398554;19;4037;-60
2023/12/02 07:14:51;;;;;;;;;;;17.20;49.30;;;;;;7399937;19;2309;-61
2023/12/02 07:17:17;;;;;;;;;;;17.20;49.30;;;;;;7400305;19;4402;-61
2023/12/02 07:19:42;;;;;;;;;;;17.20;49.30;;;;;;7400852;19;4443;-60
2023/12/02 07:22:08;;;;;;;;;;;17.20;49.30;;;;;;7394072;19;3721;-61
2023/12/02 07:24:33;;;;;;;;;;;17.20;49.20;;;;;;7399939;19;2616;-60
2023/12/02 07:26:58;;;;;;;;;;;17.20;49.30;;;;;;7397382;19;897;-60
2023/12/02 07:29:24;;;;;;;;;;;17.20;49.20;;;;;;7396130;19;3504;-60
2023/12/02 07:31:49;;;;;;;;;;;17.20;49.10;;;;;;7401765;19;1475;-60
2023/12/02 07:34:15;;;;;;;;;;;17.20;49.10;;;;;;7397560;19;3880;-61
2023/12/02 07:36:40;;;;;;;;;;;17.20;49.10;;;;;;7401513;19;1542;-60
2023/12/02 07:39:07;;;;;;;;;;;17.10;49.20;;;;;;7400394;19;1702;-60
2023/12/02 07:41:32;;;;;;;;;;;17.20;49.10;;;;;;7398253;19;1846;-61
2023/12/02 07:43:57;;;;;;;;;;;17.20;49.10;;;;;;7394773;19;3226;-60
2023/12/02 07:46:23;;;;;;;;;;;17.10;49.20;;;;;;7397776;19;3806;-61
2023/12/02 07:48:48;;;;;;;;;;;17.10;49.10;;;;;;7397820;19;3552;-60
2023/12/02 07:51:14;;;;;;;;;;;17.10;49.10;;;;;;7394886;19;3517;-61
2023/12/02 07:53:40;;;;;;;;;;;17.20;49.00;;;;;;7400332;19;1695;-61
2023/12/02 07:56:06;;;;;;;;;;;17.10;49.00;;;;;;7398788;19;1742;-61
2023/12/02 07:58:31;;;;;;;;;;;17.10;49.10;;;;;;7396454;19;3577;-61
2023/12/02 08:00:57;;;;;;;;;;;17.10;49.20;;;;;;7396149;19;3216;-61
2023/12/02 08:03:22;;;;;;;;;;;17.10;49.30;;;;;;7393813;19;4436;-60
2023/12/02 08:05:47;;;;;;;;;;;17.10;49.20;;;;;;7397823;19;2911;-61
2023/12/02 08:08:13;;;;;;;;;;;17.10;49.30;;;;;;7399903;19;1668;-60
2023/12/02 08:10:38;;;;;;;;;;;17.00;49.40;;;;;;7395989;19;3590;-61
2023/12/02 08:13:04;;;;;;;;;;;17.00;49.50;;;;;;7400274;19;1751;-61
2023/12/02 08:15:29;;;;;;;;;;;17.00;49.30;;;;;;7393117;19;3990;-61
2023/12/02 08:17:55;;;;;;;;;;;17.00;49.30;;;;;;7397564;19;4101;-60
2023/12/02 08:20:20;;;;;;;;;;;17.00;49.30;;;;;;7395356;19;3829;-61
2023/12/02 08:22:45;;;;;;;;;;;17.00;49.30;;;;;;7398143;19;1838;-61
2023/12/02 08:25:11;;;;;;;;;;;17.00;49.30;;;;;;7396064;19;3254;-60
2023/12/02 08:27:36;;;;;;;;;;;17.00;49.40;;;;;;7397196;19;3771;-60
2023/12/02 08:30:05;;;;;;;;;;;17.00;49.40;;;;;;7397948;19;3857;-61
2023/12/02 08:32:30;;;;;;;;;;;17.00;49.20;;;;;;7400133;19;3193;-61
2023/12/02 08:34:56;;;;;;;;;;;17.00;49.20;;;;;;7392931;19;3249;-61
2023/12/02 08:37:21;;;;;;;;;;;17.00;49.10;;;;;;7395133;19;3269;-61
2023/12/02 08:39:47;;;;;;;;;;;17.00;49.10;;;;;;7393174;19;4022;-61
2023/12/02 08:42:13;;;;;;;;;;;17.00;49.30;;;;;;7393681;19;3533;-60
2023/12/02 08:44:39;;;;;;;;;;;17.00;49.10;;;;;;7394733;19;2676;-60
2023/12/02 08:47:06;;;;;;;;;;;17.10;49.10;;;;;;7399571;19;1490;-61
2023/12/02 08:49:32;;;;;;;;;;;17.30;49.10;;;;;;7390397;19;3666;-61
2023/12/02 08:51:57;;;;;;;;;;;17.60;49.00;;;;;;7397204;19;3025;-60
2023/12/02 08:54:22;;;;;;;;;;;18.30;47.80;;;;;;7393272;19;4431;-61
2023/12/02 08:56:48;;;;;;;;;;;18.80;46.90;;;;;;7393761;19;3756;-61
2023/12/02 08:59:13;;;;;;;;;;;19.20;46.10;;;;;;7394898;19;3531;-60
2023/12/02 09:01:39;;;;;;;;;;;19.60;45.50;;;;;;7392770;19;3630;-61
2023/12/02 09:04:06;;;;;;;;;;;19.70;45.10;;;;;;7397112;19;3851;-60
2023/12/02 09:06:33;;;;;;;;;;;19.90;44.90;;;;;;7397980;19;1638;-60
2023/12/02 09:08:58;;;;;;;;;;;19.90;44.70;;;;;;7391731;19;3062;-60
2023/12/02 09:11:23;;;;;;;;;;;19.90;44.40;;;;;;7398549;19;3717;-61
2023/12/02 09:13:49;;;;;;;;;;;19.90;44.40;;;;;;7394601;19;1679;-61
2023/12/02 09:16:28;;;;;;;;;;;19.90;44.70;;;;;;7395176;19;4271;-61
2023/12/02 09:18:53;;;;;;;;;;;20.00;44.50;;;;;;7395346;19;3307;-61
2023/12/02 09:21:27;;;;;;;;;;;20.10;44.50;;;;;;7391503;19;2807;-60
2023/12/02 09:23:52;;;;;;;;;;;20.10;44.50;;;;;;7387676;19;4752;-60
2023/12/02 09:26:27;;;;;;;;;;;20.10;44.50;;;;;;7391469;19;3370;-61
2023/12/02 09:28:54;;;;;;;;;;;20.10;44.50;;;;;;7391017;19;3265;-60
2023/12/02 09:31:19;;;;;;;;;;;20.10;44.50;;;;;;7396097;19;3719;-60
2023/12/02 09:33:45;;;;;;;;;;;20.10;44.50;;;;;;7392451;19;3622;-60
2023/12/02 09:36:29;;;;;;;;;;;20.20;44.50;;;;;;7393744;19;4193;-61
2023/12/02 09:38:54;;;;;;;;;;;20.20;44.30;;;;;;7390060;19;2971;-62
2023/12/02 09:41:33;;;;;;;;;;;20.20;44.50;;;;;;7393900;19;2733;-60
2023/12/02 09:44:07;;;;;;;;;;;20.20;44.50;;;;;;7395988;19;3714;-61
2023/12/02 09:46:33;;;;;;;;;;;20.20;44.50;;;;;;7398480;19;1897;-60
2023/12/02 09:49:10;;;;;;;;;;;20.20;44.30;;;;;;7395570;19;1826;-60
2023/12/02 09:51:43;;;;;;;;;;;20.30;45.00;;;;;;7393076;19;3675;-62
2023/12/02 09:54:11;;;;;;;;;;;20.30;44.20;;;;;;7391697;19;3762;-61
2023/12/02 09:56:41;;;;;;;;;;;20.30;44.20;;;;;;7393787;19;3250;-60
2023/12/02 09:59:06;;;;;;;;;;;20.40;44.30;;;;;;7392926;19;3583;-61
2023/12/02 10:01:34;;;;;;;;;;;20.40;44.10;;;;;;7395441;19;1854;-60
2023/12/02 10:04:00;;;;;;;;;;;20.40;44.10;;;;;;7395148;19;1949;-61
2023/12/02 10:06:42;;;;;;;;;;;20.40;44.40;;;;;;7390232;19;3310;-60
2023/12/02 10:09:09;;;;;;;;;;;20.40;44.10;;;;;;7390326;19;3841;-60
2023/12/02 10:11:40;;;;;;;;;;;20.50;44.00;;;;;;7392729;19;4473;-60
2023/12/02 10:14:11;;;;;;;;;;;20.50;44.00;;;;;;7393670;19;3988;-60
2023/12/02 10:16:36;;;;;;;;;;;20.40;43.90;;;;;;7395699;19;3320;-60
2023/12/02 10:19:03;;;;;;;;;;;20.50;44.00;;;;;;7389527;19;4100;-60
2023/12/02 10:21:32;;;;;;;;;;;20.50;44.00;;;;;;7391709;19;3507;-60
2023/12/02 10:24:02;;;;;;;;;;;20.40;43.90;;;;;;7395977;19;1726;-60
2023/12/02 10:26:28;;;;;;;;;;;20.50;44.10;;;;;;7391864;19;4053;-61
2023/12/02 10:28:53;;;;;;;;;;;20.50;44.10;;;;;;7385008;19;3486;-61
2023/12/02 10:31:26;;;;;;;;;;;20.50;44.10;;;;;;7376517;19;5305;-61
2023/12/02 10:33:57;;;;;;;;;;;20.60;44.10;;;;;;7385300;19;3622;-61
2023/12/02 10:36:22;;;;;;;;;;;20.70;44.00;;;;;;7387095;19;5308;-60
2023/12/02 10:38:51;;;;;;;;;;;20.80;43.90;;;;;;7394942;19;3881;-61
2023/12/02 10:41:19;;;;;;;;;;;20.90;43.80;;;;;;7394270;19;2693;-61
2023/12/02 10:43:44;;;;;;;;;;;20.90;43.70;;;;;;7395499;19;5032;-60
2023/12/02 10:46:13;;;;;;;;;;;20.90;43.80;;;;;;7393271;19;5470;-60
2023/12/02 10:48:38;;;;;;;;;;;21.00;43.80;;;;;;7397914;19;4425;-60
2023/12/02 10:51:04;;;;;;;;;;;21.00;43.80;;;;;;7398117;19;1693;-60
2023/12/02 10:53:30;;;;;;;;;;;21.10;43.70;;;;;;7397663;19;1982;-60
2023/12/02 10:55:57;;;;;;;;;;;21.10;43.80;;;;;;7400570;19;1686;-60
2023/12/02 10:58:23;;;;;;;;;;;21.10;43.70;;;;;;7398769;19;2488;-60
2023/12/02 11:00:49;;;;;;;;;;;21.10;43.70;;;;;;7393470;19;4319;-60
2023/12/02 11:03:19;;;;;;;;;;;21.20;43.70;;;;;;7395368;19;3670;-60
2023/12/02 11:05:47;;;;;;;;;;;21.10;43.70;;;;;;7399950;19;3966;-60
2023/12/02 11:08:25;;;;;;;;;;;21.20;43.70;;;;;;7397544;19;3429;-60
2023/12/02 11:10:52;;;;;;;;;;;21.20;43.60;;;;;;7394145;19;4020;-60
2023/12/02 11:13:23;;;;;;;;;;;21.20;43.80;;;;;;7389375;19;3633;-60
2023/12/02 11:16:10;;;;;;;;;;;21.30;43.60;;;;;;7392953;19;1998;-60
2023/12/02 11:18:43;;;;;;;;;;;21.30;43.50;;;;;;7391224;19;4947;-60
2023/12/02 11:21:09;;;;;;;;;;;21.30;43.50;;;;;;7388610;19;4290;-61
2023/12/02 11:24:01;;;;;;;;;;;21.30;43.50;;;;;;7396450;19;1945;-60
2023/12/02 11:26:40;;;;;;;;;;;21.20;43.60;;;;;;7394974;19;3425;-60
2023/12/02 11:29:35;;;;;;;;;;;21.30;43.60;;;;;;7392423;19;3157;-60
2023/12/02 11:32:05;;;;;;;;;;;21.40;43.50;;;;;;7382867;19;3006;-60
2023/12/02 11:34:53;;;;;;;;;;;21.50;43.40;;;;;;7391357;19;1957;-61
2023/12/02 11:37:27;;;;;;;;;;;21.50;43.40;;;;;;7389203;19;3374;-60
2023/12/02 11:40:01;;;;;;;;;;;21.60;43.50;;;;;;7387316;19;3226;-60
2023/12/02 11:42:30;;;;;;;;;;;21.60;43.50;;;;;;7385930;19;3649;-60
2023/12/02 11:45:12;;;;;;;;;;;21.40;43.60;;;;;;7390245;19;2097;-60
2023/12/02 11:47:42;;;;;;;;;;;21.50;43.80;;;;;;7392561;19;2148;-60
2023/12/02 11:50:27;;;;;;;;;;;21.50;43.80;;;;;;7388524;19;3494;-60
2023/12/02 11:52:56;;;;;;;;;;;21.50;43.80;;;;;;7391089;19;3262;-60
2023/12/02 11:55:27;;;;;;;;;;;21.50;43.90;;;;;;7388984;19;3584;-60
2023/12/02 11:57:53;;;;;;;;;;;21.50;43.80;;;;;;7390973;19;2274;-60
2023/12/02 12:00:29;;;;;;;;;;;21.50;43.90;;;;;;7384200;19;3303;-60
2023/12/02 12:03:09;;;;;;;;;;;21.50;44.00;;;;;;7386070;19;3408;-60
2023/12/02 12:05:37;;;;;;;;;;;21.50;43.80;;;;;;7386802;19;3278;-60
2023/12/02 12:08:12;;;;;;;;;;;21.60;43.90;;;;;;7388430;19;3919;-60
2023/12/02 12:10:38;;;;;;;;;;;21.60;43.80;;;;;;7387813;19;4796;-60
2023/12/02 12:13:03;;;;;;;;;;;21.60;44.00;;;;;;7377910;19;4009;-60
2023/12/02 12:15:32;;;;;;;;;;;21.50;44.10;;;;;;7395086;19;4170;-60
2023/12/02 12:17:57;;;;;;;;;;;21.60;44.10;;;;;;7398852;19;2116;-60
2023/12/02 12:20:24;;;;;;;;;;;21.70;43.90;;;;;;7391068;19;3461;-61
2023/12/02 12:22:49;;;;;;;;;;;21.60;43.80;;;;;;7388459;19;3216;-61
2023/12/02 12:25:15;;;;;;;;;;;21.60;44.10;;;;;;7396785;19;2017;-60
2023/12/02 12:27:40;;;;;;;;;;;21.60;44.00;;;;;;7397397;19;3353;-61
2023/12/02 12:30:06;;;;;;;;;;;21.60;43.70;;;;;;7391760;19;3750;-60
2023/12/02 12:32:31;;;;;;;;;;;21.60;43.80;;;;;;7389354;19;2126;-60
2023/12/02 12:34:57;;;;;;;;;;;21.60;43.80;;;;;;7387020;19;3261;-60
2023/12/02 12:37:23;;;;;;;;;;;21.60;43.80;;;;;;7392190;19;3106;-60
2023/12/02 12:39:49;;;;;;;;;;;21.70;44.00;;;;;;7388235;19;3407;-60
2023/12/02 12:42:19;;;;;;;;;;;21.70;44.10;;;;;;7391969;19;2070;-60
2023/12/02 12:44:44;;;;;;;;;;;21.70;43.80;;;;;;7384084;19;3508;-60
2023/12/02 12:47:10;;;;;;;;;;;21.60;43.80;;;;;;7393317;19;4090;-60
2023/12/02 12:49:39;;;;;;;;;;;21.70;43.80;;;;;;7387994;19;1906;-62
2023/12/02 12:52:06;;;;;;;;;;;21.70;43.70;;;;;;7391933;19;3405;-61
2023/12/02 12:54:33;;;;;;;;;;;21.70;43.60;;;;;;7388155;19;2427;-61
2023/12/02 12:57:01;;;;;;;;;;;21.70;43.60;;;;;;7392342;19;1998;-60
2023/12/02 12:59:26;;;;;;;;;;;21.70;43.70;;;;;;7383979;19;4052;-62
2023/12/02 13:01:58;;;;;;;;;;;21.70;43.60;;;;;;7380281;19;3352;-60
2023/12/02 13:04:23;;;;;;;;;;;21.80;43.50;;;;;;7387246;19;2138;-60
2023/12/02 13:06:50;;;;;;;;;;;21.70;43.40;;;;;;7383317;19;3158;-60
2023/12/02 13:09:18;;;;;;;;;;;21.70;43.20;;;;;;7387628;19;3102;-60
2023/12/02 13:11:54;;;;;;;;;;;21.80;43.40;;;;;;7390351;19;2194;-61
2023/12/02 13:14:21;;;;;;;;;;;21.80;43.50;;;;;;7387896;19;3536;-60
2023/12/02 13:16:46;;;;;;;;;;;21.80;43.30;;;;;;7386136;19;2133;-60
2023/12/02 13:19:12;;;;;;;;;;;21.80;43.50;;;;;;7383005;19;3316;-60
2023/12/02 13:21:37;;;;;;;;;;;21.80;43.40;;;;;;7394222;19;3458;-60
2023/12/02 13:24:03;;;;;;;;;;;21.80;43.50;;;;;;7384920;19;3396;-60
2023/12/02 13:26:35;;;;;;;;;;;21.80;43.60;;;;;;7388855;19;4007;-60
2023/12/02 13:29:06;;;;;;;;;;;21.80;43.60;;;;;;7395341;19;3928;-60
2023/12/02 13:31:32;;;;;;;;;;;21.90;43.70;;;;;;7383926;19;5206;-61
2023/12/02 13:33:59;;;;;;;;;;;21.80;43.60;;;;;;7384787;19;3069;-61
2023/12/02 13:36:35;;;;;;;;;;;21.90;43.80;;;;;;7394425;19;1701;-61
2023/12/02 13:39:04;;;;;;;;;;;21.90;43.80;;;;;;7393423;19;1577;-61
2023/12/02 13:41:46;;;;;;;;;;;21.80;43.80;;;;;;7391577;19;1868;-62
2023/12/02 13:44:12;;;;;;;;;;;21.80;44.00;;;;;;7393235;19;1566;-61
2023/12/02 13:46:47;;;;;;;;;;;21.80;44.10;;;;;;7390919;19;1754;-61
2023/12/02 13:49:17;;;;;;;;;;;21.80;44.00;;;;;;7392455;19;1827;-61
2023/12/02 13:51:45;;;;;;;;;;;21.80;44.00;;;;;;7388812;19;1958;-61
2023/12/02 13:54:21;;;;;;;;;;;21.70;44.10;;;;;;7395104;19;1756;-61
2023/12/02 13:56:49;;;;;;;;;;;21.80;44.00;;;;;;7396158;19;1649;-61
2023/12/02 13:59:17;;;;;;;;;;;21.80;44.00;;;;;;7395823;19;1702;-61
2023/12/02 14:02:01;;;;;;;;;;;21.80;43.90;;;;;;7394125;19;2211;-61
2023/12/02 14:04:37;;;;;;;;;;;21.90;43.90;;;;;;7395252;19;1779;-61
2023/12/02 14:07:12;;;;;;;;;;;21.80;44.00;;;;;;7392651;19;2110;-60
2023/12/02 14:09:38;;;;;;;;;;;21.80;44.00;;;;;;7396077;19;2574;-61
2023/12/02 14:12:19;;;;;;;;;;;21.80;44.00;;;;;;7394882;19;2222;-61
2023/12/02 14:14:59;;;;;;;;;;;21.90;44.00;;;;;;7402898;19;2165;-61
2023/12/02 14:17:35;;;;;;;;;;;21.80;43.90;;;;;;7402758;19;2158;-61
2023/12/02 14:20:10;;;;;;;;;;;21.90;43.90;;;;;;7400251;19;2126;-61
2023/12/02 14:22:40;;;;;;;;;;;22.00;43.80;;;;;;7397002;19;1973;-61
2023/12/02 14:25:11;;;;;;;;;;;21.90;43.80;;;;;;7402832;19;1683;-61
2023/12/02 14:27:43;;;;;;;;;;;21.90;43.80;;;;;;7399511;19;1891;-61
2023/12/02 14:30:18;;;;;;;;;;;21.90;43.80;;;;;;7404823;19;1902;-62